Shalalth, Canada
Current Conditions -  °F | °C
As of 7:19 AM on Saturday 22 Nov 2014 (Local Time) from CYIN Reporting Station
Clear Clear  
Wind Chill: 23°   Ceiling: Unl
Heat Index: 23°   Visibility: 7mi
Dew Point: 21°   Wind: 2mph
Humidity: 93%   Direction: NA
Pressure: 29.4"   Gusts: NA
Location:  50.73°N, 122.23°W
Report Text: CYIN 221519Z AUTO VRB02KT 7SM CLR M05/M06 A2940 RMK ICG SLP990
Loading
Personal Weather Stations






























Interactive Weather Map New forecast layout! Learn more

10-Day Weather Forecast

Advertisements
Track Severe Weather on mobile